createdAt,value
2019-05-29T00:00:09.909Z,12.60
2019-05-29T00:02:36.471Z,12.70
2019-05-29T00:05:05.990Z,12.70
2019-05-29T00:07:32.590Z,12.80
2019-05-29T00:09:58.853Z,12.70
2019-05-29T00:12:25.143Z,12.70
2019-05-29T00:14:51.272Z,12.80
2019-05-29T00:17:18.766Z,12.60
2019-05-29T00:19:44.976Z,12.70
2019-05-29T00:22:12.327Z,12.80
2019-05-29T00:24:38.666Z,12.70
2019-05-29T00:27:05.364Z,12.80
2019-05-29T00:29:31.838Z,12.60
2019-05-29T00:31:57.969Z,12.70
2019-05-29T00:34:24.326Z,12.70
2019-05-29T00:36:50.768Z,12.80
2019-05-29T00:39:17.181Z,12.80
2019-05-29T00:41:43.313Z,12.90
2019-05-29T00:44:11.109Z,12.80
2019-05-29T00:46:37.746Z,12.80
2019-05-29T00:49:04.021Z,12.80
2019-05-29T00:51:30.156Z,12.80
2019-05-29T00:53:56.393Z,12.80
2019-05-29T00:56:22.847Z,12.90
2019-05-29T00:58:49.119Z,12.90
2019-05-29T01:01:15.515Z,12.60
2019-05-29T01:03:42.177Z,12.60
2019-05-29T01:06:08.323Z,12.60
2019-05-29T01:08:34.445Z,12.30
2019-05-29T01:11:00.654Z,12.10
2019-05-29T01:13:27.000Z,12.20
2019-05-29T01:15:53.165Z,12.10
2019-05-29T01:18:19.986Z,12.30
2019-05-29T01:20:46.361Z,12.00
2019-05-29T01:23:12.785Z,12.30
2019-05-29T01:25:40.629Z,12.40
2019-05-29T01:28:06.758Z,12.20
2019-05-29T01:30:33.356Z,11.90
2019-05-29T01:32:59.495Z,11.90
2019-05-29T01:35:25.880Z,12.10
2019-05-29T01:37:52.037Z,12.30
2019-05-29T01:40:21.962Z,12.10
2019-05-29T01:42:49.795Z,11.90
2019-05-29T01:45:15.434Z,12.20
2019-05-29T01:47:41.891Z,12.50
2019-05-29T01:50:08.348Z,12.40
2019-05-29T01:52:34.465Z,12.40
2019-05-29T01:55:03.838Z,12.20
2019-05-29T01:57:29.963Z,12.20
2019-05-29T01:59:56.385Z,12.30
2019-05-29T02:02:22.531Z,12.20
2019-05-29T02:04:48.669Z,12.50
2019-05-29T02:07:15.816Z,12.20
2019-05-29T02:09:42.273Z,12.30
2019-05-29T02:12:08.410Z,12.20
2019-05-29T02:14:34.547Z,12.10
2019-05-29T02:17:01.041Z,12.00
2019-05-29T02:19:28.199Z,12.20
2019-05-29T02:21:54.819Z,12.40
2019-05-29T02:24:21.186Z,11.90
2019-05-29T02:26:47.577Z,11.70
2019-05-29T02:29:13.721Z,12.10
2019-05-29T02:31:40.071Z,12.10
2019-05-29T02:34:07.533Z,11.80
2019-05-29T02:36:34.173Z,11.90
2019-05-29T02:39:00.669Z,11.90
2019-05-29T02:41:28.413Z,12.10
2019-05-29T02:43:54.849Z,12.30
2019-05-29T02:46:21.751Z,12.30
2019-05-29T02:48:48.913Z,12.20
2019-05-29T02:51:15.917Z,12.10
2019-05-29T02:53:42.172Z,11.80
2019-05-29T02:56:08.318Z,12.00
2019-05-29T02:58:34.564Z,12.20
2019-05-29T03:01:01.101Z,11.90
2019-05-29T03:03:31.093Z,12.20
2019-05-29T03:05:56.771Z,12.20
2019-05-29T03:08:24.586Z,12.00
2019-05-29T03:10:51.366Z,12.10
2019-05-29T03:13:18.415Z,12.20
2019-05-29T03:15:44.645Z,11.70
2019-05-29T03:18:11.334Z,11.80
2019-05-29T03:20:37.648Z,11.90
2019-05-29T03:23:03.966Z,11.80
2019-05-29T03:25:30.648Z,11.90
2019-05-29T03:27:57.046Z,11.60
2019-05-29T03:30:23.281Z,11.80
2019-05-29T03:32:49.440Z,11.70
2019-05-29T03:35:15.669Z,11.60
2019-05-29T03:37:42.087Z,11.40
2019-05-29T03:40:08.644Z,11.50
2019-05-29T03:42:34.846Z,11.30
2019-05-29T03:45:01.236Z,10.90
2019-05-29T03:47:28.700Z,11.00
2019-05-29T03:49:55.033Z,11.40
2019-05-29T03:52:21.267Z,11.30
2019-05-29T03:54:47.432Z,11.10
2019-05-29T03:57:13.734Z,11.20
2019-05-29T03:59:40.009Z,11.30
2019-05-29T04:02:06.956Z,11.20
2019-05-29T04:04:33.583Z,11.10
2019-05-29T04:07:01.147Z,11.10
2019-05-29T04:09:29.076Z,10.90
2019-05-29T04:11:56.027Z,11.00
2019-05-29T04:14:22.660Z,10.90
2019-05-29T04:16:59.267Z,10.90
2019-05-29T04:19:18.464Z,10.90
2019-05-29T04:21:45.397Z,11.20
2019-05-29T04:24:13.931Z,11.40
2019-05-29T04:26:40.156Z,11.10
2019-05-29T04:29:07.140Z,11.10
2019-05-29T04:31:34.497Z,11.40
2019-05-29T04:34:00.920Z,11.30
2019-05-29T04:36:28.706Z,11.30
2019-05-29T04:38:55.574Z,11.70
2019-05-29T04:41:21.792Z,11.80
2019-05-29T04:43:48.121Z,11.20
2019-05-29T04:46:14.374Z,11.30
2019-05-29T04:48:40.888Z,11.30
2019-05-29T04:51:07.532Z,11.20
2019-05-29T04:53:34.198Z,11.20
2019-05-29T04:56:01.823Z,11.50
2019-05-29T04:58:28.791Z,11.50
2019-05-29T05:00:59.268Z,11.80
2019-05-29T05:03:23.155Z,11.80
2019-05-29T05:05:49.527Z,12.10
2019-05-29T05:08:15.904Z,11.60
2019-05-29T05:10:42.233Z,11.50
2019-05-29T05:13:09.096Z,11.80
2019-05-29T05:15:38.013Z,11.70
2019-05-29T05:18:06.206Z,11.60
2019-05-29T05:20:33.918Z,11.90
2019-05-29T05:23:00.408Z,11.80
2019-05-29T05:25:26.678Z,11.90
2019-05-29T05:27:52.828Z,12.10
2019-05-29T05:30:19.410Z,12.40
2019-05-29T05:32:45.736Z,12.40
2019-05-29T05:35:14.516Z,12.50
2019-05-29T05:37:41.037Z,12.20
2019-05-29T05:40:07.661Z,12.10
2019-05-29T05:42:34.855Z,11.80
2019-05-29T05:45:01.321Z,11.90
2019-05-29T05:47:43.486Z,12.10
2019-05-29T05:49:57.249Z,12.20
2019-05-29T05:52:23.495Z,11.70
2019-05-29T05:54:50.046Z,11.80
2019-05-29T05:57:16.226Z,12.20
2019-05-29T05:59:42.671Z,11.80
2019-05-29T06:02:09.217Z,12.10
2019-05-29T06:04:35.879Z,12.30
2019-05-29T06:07:02.397Z,12.30
2019-05-29T06:09:28.642Z,12.00
2019-05-29T06:11:54.859Z,12.20
2019-05-29T06:14:21.345Z,12.10
2019-05-29T06:16:47.575Z,11.90
2019-05-29T06:19:13.936Z,12.10
2019-05-29T06:21:40.901Z,12.40
2019-05-29T06:24:07.538Z,12.20
2019-05-29T06:26:34.851Z,12.00
2019-05-29T06:29:01.135Z,11.90
2019-05-29T06:31:27.524Z,12.10
2019-05-29T06:33:54.191Z,11.90
2019-05-29T06:36:20.440Z,12.20
2019-05-29T06:38:47.131Z,12.20
2019-05-29T06:41:13.554Z,12.00
2019-05-29T06:43:40.483Z,12.30
2019-05-29T06:46:06.892Z,12.10
2019-05-29T06:48:50.252Z,12.40
2019-05-29T06:51:01.315Z,12.50
2019-05-29T06:53:27.504Z,13.00
2019-05-29T06:55:55.678Z,12.40
2019-05-29T06:58:22.240Z,12.80
2019-05-29T07:00:48.424Z,12.90
2019-05-29T07:03:14.828Z,12.80
2019-05-29T07:05:46.667Z,12.70
2019-05-29T07:08:18.921Z,13.00
2019-05-29T07:10:38.537Z,12.70
2019-05-29T07:13:05.162Z,12.50
2019-05-29T07:15:32.264Z,12.90
2019-05-29T07:17:58.907Z,13.10
2019-05-29T07:20:25.662Z,13.00
2019-05-29T07:22:52.035Z,13.20
2019-05-29T07:25:19.216Z,13.30
2019-05-29T07:27:47.002Z,13.30
2019-05-29T07:30:14.551Z,13.10
2019-05-29T07:32:43.192Z,12.90
2019-05-29T07:35:11.320Z,13.10
2019-05-29T07:37:39.696Z,13.30
2019-05-29T07:40:07.449Z,13.40
2019-05-29T07:42:34.407Z,13.80
2019-05-29T07:45:00.891Z,14.00
2019-05-29T07:47:27.196Z,14.00
2019-05-29T07:49:54.299Z,14.10
2019-05-29T07:52:20.950Z,14.10
2019-05-29T07:54:48.072Z,14.10
2019-05-29T07:57:15.269Z,13.90
2019-05-29T07:59:42.698Z,14.00
2019-05-29T08:02:09.569Z,13.80
2019-05-29T08:04:36.433Z,13.80
2019-05-29T08:07:03.720Z,13.90
2019-05-29T08:09:30.102Z,13.70
2019-05-29T08:11:56.811Z,13.70
2019-05-29T08:14:23.224Z,13.60
2019-05-29T08:16:50.132Z,13.70
2019-05-29T08:19:16.396Z,14.00
2019-05-29T08:21:44.200Z,14.00
2019-05-29T08:24:10.841Z,14.00
2019-05-29T08:26:37.046Z,13.90
2019-05-29T08:29:03.664Z,13.30
2019-05-29T08:31:30.547Z,13.40
2019-05-29T08:33:56.767Z,13.70
2019-05-29T08:36:23.012Z,13.80
2019-05-29T08:38:49.400Z,13.60
2019-05-29T08:41:15.743Z,13.70
2019-05-29T08:43:42.523Z,13.60
2019-05-29T08:46:09.208Z,13.90
2019-05-29T08:48:35.379Z,13.90
2019-05-29T08:51:01.624Z,13.90
2019-05-29T08:53:27.805Z,14.00
2019-05-29T08:55:55.719Z,14.20
2019-05-29T08:58:23.772Z,13.90
2019-05-29T09:00:53.374Z,13.50
2019-05-29T09:03:18.200Z,13.70
2019-05-29T09:05:44.608Z,14.20
2019-05-29T09:08:11.177Z,14.40
2019-05-29T09:10:37.417Z,14.50
2019-05-29T09:13:05.253Z,14.50
2019-05-29T09:15:31.912Z,14.20
2019-05-29T09:17:58.264Z,14.70
2019-05-29T09:20:41.742Z,14.60
2019-05-29T09:22:53.011Z,14.90
2019-05-29T09:25:21.072Z,15.00
2019-05-29T09:27:47.479Z,15.20
2019-05-29T09:30:15.521Z,15.20
2019-05-29T09:32:50.428Z,14.50
2019-05-29T09:35:10.819Z,14.90
2019-05-29T09:37:37.120Z,15.10
2019-05-29T09:40:19.002Z,15.20
2019-05-29T09:42:45.687Z,15.20
2019-05-29T09:45:12.543Z,15.50
2019-05-29T09:47:38.673Z,15.10
2019-05-29T09:50:08.873Z,16.30
2019-05-29T09:52:35.318Z,15.80
2019-05-29T09:55:02.572Z,15.40
2019-05-29T09:57:28.983Z,15.20
2019-05-29T09:59:56.411Z,14.90
2019-05-29T10:02:23.511Z,15.10
2019-05-29T10:04:49.771Z,15.40
2019-05-29T10:07:16.131Z,15.40
2019-05-29T10:09:42.281Z,15.30
2019-05-29T10:12:08.620Z,15.00
2019-05-29T10:14:36.251Z,15.20
2019-05-29T10:17:08.026Z,15.70
2019-05-29T10:19:31.128Z,16.00
2019-05-29T10:21:58.329Z,16.20
2019-05-29T10:24:26.878Z,16.00
2019-05-29T10:26:52.996Z,15.90
2019-05-29T10:29:19.389Z,16.20
2019-05-29T10:31:47.232Z,16.60
2019-05-29T10:34:13.784Z,16.80
2019-05-29T10:36:40.190Z,16.90
2019-05-29T10:39:07.259Z,17.00
2019-05-29T10:41:33.554Z,17.10
2019-05-29T10:43:59.766Z,16.80
2019-05-29T10:46:25.932Z,16.70
2019-05-29T10:48:55.972Z,17.30
2019-05-29T10:51:21.149Z,17.60
2019-05-29T10:53:49.605Z,16.80
2019-05-29T10:56:15.823Z,17.20
2019-05-29T10:58:50.638Z,17.70
2019-05-29T11:01:10.449Z,17.50
2019-05-29T11:03:36.809Z,17.70
2019-05-29T11:06:03.304Z,17.60
2019-05-29T11:08:29.533Z,17.30
2019-05-29T11:10:56.321Z,17.10
2019-05-29T11:13:22.803Z,17.20
2019-05-29T11:15:49.327Z,17.10
2019-05-29T11:18:16.159Z,17.40
2019-05-29T11:20:42.719Z,17.70
2019-05-29T11:23:09.042Z,18.00
2019-05-29T11:25:35.937Z,18.50
2019-05-29T11:28:02.469Z,18.70
2019-05-29T11:30:28.634Z,17.80
2019-05-29T11:32:56.778Z,16.70
2019-05-29T11:35:23.055Z,16.60
2019-05-29T11:37:50.382Z,17.50
2019-05-29T11:40:17.386Z,18.00
2019-05-29T11:42:43.589Z,17.80
2019-05-29T11:45:11.710Z,17.30
2019-05-29T11:47:38.144Z,17.60
2019-05-29T11:50:19.207Z,17.40
2019-05-29T11:52:42.860Z,17.40
2019-05-29T11:55:08.132Z,17.10
2019-05-29T11:57:34.875Z,17.50
2019-05-29T12:00:16.365Z,17.70
2019-05-29T12:02:31.518Z,18.10
2019-05-29T12:05:01.154Z,18.00
2019-05-29T12:07:26.008Z,18.40
2019-05-29T12:09:53.226Z,18.20
2019-05-29T12:12:19.953Z,18.50
2019-05-29T12:15:00.277Z,18.80
2019-05-29T12:17:14.256Z,18.60
2019-05-29T12:19:40.793Z,19.10
2019-05-29T12:22:06.976Z,18.70
2019-05-29T12:24:33.236Z,18.60
2019-05-29T12:27:00.555Z,18.80
2019-05-29T12:29:27.116Z,18.60
2019-05-29T12:31:54.818Z,18.60
2019-05-29T12:34:21.338Z,18.80
2019-05-29T12:36:47.607Z,18.60
2019-05-29T12:39:13.755Z,18.70
2019-05-29T12:41:40.313Z,18.00
2019-05-29T12:44:07.368Z,17.70
2019-05-29T12:46:35.285Z,18.10
2019-05-29T12:49:01.781Z,17.90
2019-05-29T12:51:28.281Z,18.10
2019-05-29T12:53:55.770Z,18.00
2019-05-29T12:56:22.603Z,17.70
2019-05-29T12:58:48.977Z,17.60
2019-05-29T13:01:15.230Z,17.50
2019-05-29T13:03:44.984Z,17.30
2019-05-29T13:06:09.517Z,17.00
2019-05-29T13:08:35.841Z,17.20
2019-05-29T13:11:02.646Z,17.00
2019-05-29T13:13:29.189Z,17.70
2019-05-29T13:15:56.674Z,17.70
2019-05-29T13:18:23.169Z,17.90
2019-05-29T13:20:49.423Z,18.10
2019-05-29T13:23:16.890Z,18.50
2019-05-29T13:25:43.061Z,18.40
2019-05-29T13:28:09.275Z,17.90
2019-05-29T13:30:37.173Z,18.10
2019-05-29T13:33:07.368Z,18.10
2019-05-29T13:35:31.911Z,17.90
2019-05-29T13:37:58.920Z,17.80
2019-05-29T13:40:25.113Z,17.80
2019-05-29T13:42:51.441Z,17.70
2019-05-29T13:45:18.760Z,17.50
2019-05-29T13:47:45.193Z,17.30
2019-05-29T13:50:13.271Z,17.20
2019-05-29T13:52:40.032Z,17.30
2019-05-29T13:55:07.712Z,17.10
2019-05-29T13:57:34.085Z,17.00
2019-05-29T14:00:00.539Z,17.30
2019-05-29T14:02:26.774Z,16.70
2019-05-29T14:04:53.208Z,16.90
2019-05-29T14:07:19.356Z,17.10
2019-05-29T14:09:45.472Z,16.50
2019-05-29T14:12:12.764Z,16.10
2019-05-29T14:14:39.310Z,16.00
2019-05-29T14:17:06.661Z,15.90
2019-05-29T14:19:32.946Z,16.40
2019-05-29T14:22:01.049Z,15.90
2019-05-29T14:24:29.846Z,16.10
2019-05-29T14:26:55.387Z,15.30
2019-05-29T14:29:22.153Z,15.50
2019-05-29T14:31:48.608Z,15.00
2019-05-29T14:34:15.042Z,14.70
2019-05-29T14:36:41.323Z,14.60
2019-05-29T14:39:07.895Z,14.30
2019-05-29T14:41:34.068Z,14.80
2019-05-29T14:44:00.204Z,15.30
2019-05-29T14:46:26.352Z,15.50
2019-05-29T14:48:52.944Z,15.20
2019-05-29T14:51:19.089Z,15.10
2019-05-29T14:53:45.239Z,15.40
2019-05-29T14:56:12.696Z,15.80
2019-05-29T14:58:39.358Z,15.80
2019-05-29T15:01:07.062Z,15.90
2019-05-29T15:03:33.750Z,15.60
2019-05-29T15:06:00.099Z,15.80
2019-05-29T15:08:26.531Z,16.10
2019-05-29T15:10:52.978Z,16.20
2019-05-29T15:13:20.679Z,16.50
2019-05-29T15:15:46.983Z,16.20
2019-05-29T15:18:17.329Z,16.40
2019-05-29T15:20:41.656Z,16.50
2019-05-29T15:23:09.218Z,16.10
2019-05-29T15:25:35.552Z,16.20
2019-05-29T15:28:01.973Z,16.40
2019-05-29T15:30:28.352Z,16.40
2019-05-29T15:32:54.477Z,16.50
2019-05-29T15:35:20.992Z,16.60
2019-05-29T15:37:47.252Z,16.60
2019-05-29T15:40:14.939Z,16.60
2019-05-29T15:42:42.108Z,16.60
2019-05-29T15:45:11.824Z,16.70
2019-05-29T15:47:38.471Z,16.40
2019-05-29T15:50:06.953Z,16.50
2019-05-29T15:52:33.330Z,16.50
2019-05-29T15:55:19.543Z,16.70
2019-05-29T15:57:47.390Z,16.70
2019-05-29T16:00:15.479Z,16.70
2019-05-29T16:02:41.938Z,16.70
2019-05-29T16:05:11.160Z,16.70
2019-05-29T16:07:37.901Z,16.70
2019-05-29T16:10:08.215Z,16.80
2019-05-29T16:12:35.015Z,16.70
2019-05-29T16:15:01.250Z,16.80
2019-05-29T16:17:27.378Z,16.80
2019-05-29T16:19:53.630Z,16.80
2019-05-29T16:22:19.911Z,16.80
2019-05-29T16:24:46.300Z,16.80
2019-05-29T16:27:13.780Z,16.80
2019-05-29T16:29:40.360Z,16.80
2019-05-29T16:32:06.554Z,16.80
2019-05-29T16:34:32.707Z,16.80
2019-05-29T16:36:59.057Z,16.70
2019-05-29T16:39:25.279Z,16.80
2019-05-29T16:42:11.864Z,16.70
2019-05-29T16:44:38.231Z,16.80
2019-05-29T16:47:05.084Z,16.50
2019-05-29T16:49:31.218Z,16.30
2019-05-29T16:51:57.421Z,16.30
2019-05-29T16:54:23.818Z,16.00
2019-05-29T16:56:50.183Z,15.60
2019-05-29T16:59:17.002Z,15.00
2019-05-29T17:01:43.730Z,14.80
2019-05-29T17:04:09.856Z,15.00
2019-05-29T17:06:37.448Z,15.30
2019-05-29T17:09:07.048Z,15.50
2019-05-29T17:11:33.221Z,15.40
2019-05-29T17:13:59.620Z,15.30
2019-05-29T17:16:25.887Z,15.50
2019-05-29T17:18:53.012Z,15.20
2019-05-29T17:21:20.664Z,15.20
2019-05-29T17:23:47.206Z,14.90
2019-05-29T17:26:14.565Z,15.10
2019-05-29T17:28:40.916Z,15.20
2019-05-29T17:31:07.752Z,15.30
2019-05-29T17:33:33.979Z,15.40
2019-05-29T17:36:00.237Z,15.40
2019-05-29T17:38:26.570Z,15.30
2019-05-29T17:40:52.799Z,15.00
2019-05-29T17:43:22.067Z,14.90
2019-05-29T17:45:47.745Z,15.00
2019-05-29T17:48:15.343Z,15.10
2019-05-29T17:50:41.842Z,15.20
2019-05-29T17:53:08.480Z,15.30
2019-05-29T17:55:34.712Z,15.20
2019-05-29T17:58:00.850Z,15.30
2019-05-29T18:00:27.424Z,15.40
2019-05-29T18:02:54.022Z,15.40
2019-05-29T18:05:20.553Z,15.60
2019-05-29T18:07:47.159Z,15.50
2019-05-29T18:10:13.707Z,15.30
2019-05-29T18:12:39.995Z,15.40
2019-05-29T18:15:08.214Z,15.40
2019-05-29T18:17:34.883Z,15.30
2019-05-29T18:20:03.152Z,15.40
2019-05-29T18:22:29.631Z,15.40
2019-05-29T18:24:55.999Z,15.40
2019-05-29T18:27:22.282Z,15.40
2019-05-29T18:29:48.574Z,15.10
2019-05-29T18:32:14.692Z,15.00
2019-05-29T18:34:41.214Z,14.90
2019-05-29T18:37:07.409Z,14.60
2019-05-29T18:39:33.704Z,14.40
2019-05-29T18:42:00.087Z,14.20
2019-05-29T18:44:26.918Z,14.20
2019-05-29T18:46:55.026Z,14.20
2019-05-29T18:49:22.169Z,14.20
2019-05-29T18:51:48.911Z,14.00
2019-05-29T18:54:15.462Z,13.90
2019-05-29T18:56:41.631Z,13.80
2019-05-29T18:59:08.298Z,13.70
2019-05-29T19:01:34.764Z,13.70
2019-05-29T19:04:01.066Z,13.60
2019-05-29T19:06:27.721Z,13.60
2019-05-29T19:08:55.747Z,13.60
2019-05-29T19:11:22.049Z,13.70
2019-05-29T19:13:48.562Z,13.80
2019-05-29T19:16:16.559Z,13.90
2019-05-29T19:18:43.176Z,14.00
2019-05-29T19:21:09.613Z,14.00
2019-05-29T19:23:40.135Z,14.00
2019-05-29T19:26:06.638Z,14.00
2019-05-29T19:28:32.926Z,14.00
2019-05-29T19:30:59.486Z,14.00
2019-05-29T19:33:27.388Z,14.00
2019-05-29T19:35:54.768Z,13.90
2019-05-29T19:38:21.335Z,13.90
2019-05-29T19:40:47.691Z,13.90
2019-05-29T19:43:14.414Z,13.90
2019-05-29T19:45:40.610Z,13.90
2019-05-29T19:48:07.008Z,13.80
2019-05-29T19:50:34.946Z,13.80
2019-05-29T19:53:01.724Z,13.70
2019-05-29T19:55:31.759Z,13.60
2019-05-29T19:57:56.883Z,13.60
2019-05-29T20:00:24.096Z,13.50
2019-05-29T20:02:50.336Z,13.40
2019-05-29T20:05:16.979Z,13.30
2019-05-29T20:07:43.317Z,13.20
2019-05-29T20:10:10.185Z,13.20
2019-05-29T20:12:38.269Z,13.20
2019-05-29T20:15:05.713Z,13.10
2019-05-29T20:17:32.093Z,13.10
2019-05-29T20:19:58.705Z,13.00
2019-05-29T20:22:25.306Z,13.00
2019-05-29T20:24:51.478Z,13.00
2019-05-29T20:27:18.277Z,13.00
2019-05-29T20:29:44.550Z,12.90
2019-05-29T20:32:11.299Z,12.80
2019-05-29T20:34:37.504Z,12.70
2019-05-29T20:37:04.071Z,12.70
2019-05-29T20:39:30.274Z,12.80
2019-05-29T20:41:56.817Z,12.70
2019-05-29T20:44:23.257Z,12.70
2019-05-29T20:46:49.487Z,12.70
2019-05-29T20:49:15.783Z,12.80
2019-05-29T20:51:42.460Z,12.70
2019-05-29T20:54:08.701Z,12.70
2019-05-29T20:56:35.832Z,12.70
2019-05-29T20:59:02.210Z,12.60
2019-05-29T21:01:28.818Z,12.60
2019-05-29T21:03:55.055Z,12.50
2019-05-29T21:06:21.410Z,12.40
2019-05-29T21:08:48.105Z,12.50
2019-05-29T21:11:14.496Z,12.40
2019-05-29T21:13:41.543Z,12.40
2019-05-29T21:16:09.179Z,12.40
2019-05-29T21:18:35.851Z,12.40
2019-05-29T21:21:02.720Z,12.30
2019-05-29T21:23:29.145Z,12.20
2019-05-29T21:25:55.425Z,11.90
2019-05-29T21:28:21.771Z,11.90
2019-05-29T21:30:48.036Z,11.90
2019-05-29T21:33:14.357Z,12.00
2019-05-29T21:35:42.107Z,12.00
2019-05-29T21:38:08.627Z,11.90
2019-05-29T21:40:36.214Z,11.90
2019-05-29T21:43:02.779Z,11.90
2019-05-29T21:45:29.182Z,11.90
2019-05-29T21:47:55.470Z,11.90
2019-05-29T21:50:22.022Z,11.90
2019-05-29T21:52:48.191Z,11.80
2019-05-29T21:55:14.891Z,11.80
2019-05-29T21:57:43.917Z,11.70
2019-05-29T22:00:13.789Z,11.70
2019-05-29T22:02:40.411Z,11.70
2019-05-29T22:05:06.928Z,11.60
2019-05-29T22:07:33.491Z,11.60
2019-05-29T22:10:00.900Z,11.60
2019-05-29T22:12:27.324Z,11.60
2019-05-29T22:14:55.040Z,11.60
2019-05-29T22:17:21.580Z,11.60
2019-05-29T22:19:47.742Z,11.50
2019-05-29T22:22:14.231Z,11.50
2019-05-29T22:24:40.592Z,11.50
2019-05-29T22:27:06.789Z,11.40
2019-05-29T22:29:33.216Z,11.40
2019-05-29T22:31:59.560Z,11.40
2019-05-29T22:34:25.805Z,11.40
2019-05-29T22:36:53.893Z,11.30
2019-05-29T22:39:20.133Z,11.30
2019-05-29T22:41:46.673Z,11.30
2019-05-29T22:44:12.910Z,11.20
2019-05-29T22:46:39.429Z,11.10
2019-05-29T22:49:05.901Z,11.10
2019-05-29T22:51:34.875Z,11.10
2019-05-29T22:54:02.076Z,11.10
2019-05-29T22:56:28.303Z,11.00
2019-05-29T22:58:55.956Z,11.00
2019-05-29T23:01:22.475Z,11.00
2019-05-29T23:03:48.789Z,11.00
2019-05-29T23:06:15.072Z,11.00
2019-05-29T23:08:41.298Z,10.80
2019-05-29T23:11:07.782Z,10.50
2019-05-29T23:13:33.967Z,10.50
2019-05-29T23:16:00.785Z,10.60
2019-05-29T23:18:27.213Z,10.60
2019-05-29T23:20:54.295Z,10.50
2019-05-29T23:23:20.773Z,10.60
2019-05-29T23:25:46.926Z,10.60
2019-05-29T23:28:13.038Z,10.60
2019-05-29T23:30:40.401Z,10.60
2019-05-29T23:33:08.577Z,10.60
2019-05-29T23:35:34.692Z,10.60
2019-05-29T23:38:01.339Z,10.60
2019-05-29T23:40:27.688Z,10.60
2019-05-29T23:42:55.320Z,10.50
2019-05-29T23:45:21.983Z,10.40
2019-05-29T23:47:48.220Z,10.10
2019-05-29T23:50:16.050Z,10.20
2019-05-29T23:52:42.352Z,10.30
2019-05-29T23:55:08.986Z,10.20
2019-05-29T23:57:35.591Z,10.10
